»·PEaware :: N733TR KABQ-KTUS

N733TR :: KABQ-KTUS

FLIGHT INFORMATION

Flight Status: Arrived
Operator: Privately registered:
United States
More flights under this callsign
Pilot: Jonathan B. (787)
Aircraft: CIRRUS VISIONJET
(SF50)
More flights by this aircraft type
Origin: KABQ Albuquerque Intl Sunport
United States
Destination: KTUS Tucson Intl
United States
More flights between these airports :: More routes between these airports
Route: MNZNO3 ONM J104 SSO ZONNA1
File this flight plan on PilotEdge
Remarks:
Altitude:
(Current/Filed)
22,000ft
Speed:
(Current/Filed)
280kts
Departed: 30-Oct-23 02:32 PM
Arrived: 30-Oct-23 04:04 PM
Distance/Time
Traveled:
278nm/1:31
Distance/Time
To Go:
Arrived

Flight Plot

Page will automatically refresh every two minutes.

Flight plan parsing failed; only flown route is shown


Map Options




Map Legend


Flown Route
Filed Route
Departure Airport
Arrival Airport
Navaid (VOR, NDB)
Fix

Horizontal Profiles

Position Reports

Time Latitude Longitude Heading Altitude Ground
Speed
30-Oct-23 14:11 35.046712 -106.616209 179 5313ft 0kts
30-Oct-23 14:12 35.046712 -106.616209 179 5313ft 0kts
30-Oct-23 14:13 35.046712 -106.616209 179 5313ft 0kts
30-Oct-23 14:14 35.046712 -106.616209 179 5313ft 0kts
30-Oct-23 14:16 35.046712 -106.616209 179 5313ft 0kts
30-Oct-23 14:17 35.046712 -106.616209 179 5313ft 0kts
30-Oct-23 14:18 35.046712 -106.616209 179 5313ft 0kts
30-Oct-23 14:19 35.046712 -106.616209 179 5313ft 0kts
30-Oct-23 14:20 35.046712 -106.616209 179 5313ft 0kts
30-Oct-23 14:21 35.046712 -106.616209 179 5313ft 0kts
30-Oct-23 14:22 35.046712 -106.616209 179 5313ft 0kts
30-Oct-23 14:23 35.046711 -106.616209 179 5313ft 0kts
30-Oct-23 14:24 35.046711 -106.616209 179 5313ft 0kts
30-Oct-23 14:25 35.046711 -106.616209 179 5313ft 0kts
30-Oct-23 14:26 35.046711 -106.616209 179 5313ft 0kts
30-Oct-23 14:27 35.046711 -106.616209 179 5313ft 0kts
30-Oct-23 14:28 35.046502 -106.616214 187 5313ft 8kts
30-Oct-23 14:29 35.045593 -106.620853 270 5303ft 15kts
30-Oct-23 14:30 35.045311 -106.621371 193 5301ft 0kts
30-Oct-23 14:31 35.045044 -106.621399 180 5301ft 11kts
30-Oct-23 14:32 35.044137 -106.601528 90 5652ft 119kts
30-Oct-23 14:33 35.025215 -106.566297 130 7360ft 143kts
30-Oct-23 14:34 34.999006 -106.528768 130 8968ft 155kts
30-Oct-23 14:35 34.951353 -106.512856 185 9819ft 204kts
30-Oct-23 14:36 34.897586 -106.515791 186 11941ft 173kts
30-Oct-23 14:36 34.857909 -106.517079 186 13190ft 172kts
30-Oct-23 14:38 34.802777 -106.520731 217 14688ft 164kts
30-Oct-23 14:39 34.763391 -106.538377 250 15839ft 149kts
30-Oct-23 14:40 34.732537 -106.574382 223 17036ft 160kts
30-Oct-23 14:41 34.695668 -106.603516 224 18225ft 154kts
30-Oct-23 14:41 34.665885 -106.626764 224 19081ft 153kts
30-Oct-23 14:42 34.629988 -106.654662 225 20038ft 152kts
30-Oct-23 14:44 34.588271 -106.687114 225 21055ft 152kts
30-Oct-23 14:45 34.552084 -106.715228 225 21844ft 155kts
30-Oct-23 14:45 34.521805 -106.738681 225 22519ft 155kts
30-Oct-23 14:46 34.488977 -106.764259 223 22588ft 192kts
30-Oct-23 14:47 34.431080 -106.787396 206 22590ft 237kts
30-Oct-23 14:48 34.364858 -106.811154 205 22591ft 255kts
30-Oct-23 14:49 34.309314 -106.856825 232 22597ft 243kts
30-Oct-23 14:50 34.261251 -106.915192 232 22586ft 247kts
30-Oct-23 14:51 34.212760 -106.974307 232 22590ft 247kts
30-Oct-23 14:52 34.164135 -107.033444 232 22595ft 248kts
30-Oct-23 14:53 34.115355 -107.092707 232 22596ft 249kts
30-Oct-23 14:54 34.066345 -107.152091 232 22603ft 250kts
30-Oct-23 14:55 34.017329 -107.211411 232 22613ft 250kts
30-Oct-23 14:56 33.968277 -107.270680 232 22645ft 248kts
30-Oct-23 14:57 33.919400 -107.329638 232 22647ft 248kts
30-Oct-23 14:58 33.870701 -107.388277 232 22652ft 248kts
30-Oct-23 14:59 33.821938 -107.446863 232 22656ft 247kts
30-Oct-23 15:00 33.773400 -107.505104 231 22684ft 245kts
30-Oct-23 15:01 33.725268 -107.562782 232 22691ft 244kts
30-Oct-23 15:02 33.676892 -107.620626 232 22703ft 246kts
30-Oct-23 15:03 33.628459 -107.678442 231 22722ft 246kts
30-Oct-23 15:04 33.579855 -107.736326 231 22754ft 245kts
30-Oct-23 15:05 33.531239 -107.794202 231 22762ft 247kts
30-Oct-23 15:06 33.482503 -107.852114 231 22765ft 246kts
30-Oct-23 15:07 33.433975 -107.909626 231 22792ft 244kts
30-Oct-23 15:08 33.385534 -107.966986 231 22807ft 244kts
30-Oct-23 15:09 33.337212 -108.024081 231 22809ft 245kts
30-Oct-23 15:10 33.288584 -108.081429 231 22799ft 244kts
30-Oct-23 15:11 33.240191 -108.138444 231 22784ft 244kts
30-Oct-23 15:12 33.191642 -108.195595 231 22779ft 245kts
30-Oct-23 15:13 33.143127 -108.252558 231 22799ft 244kts
30-Oct-23 15:14 33.111351 -108.289835 230 22790ft 245kts
30-Oct-23 15:17 32.974466 -108.449863 231 22770ft 244kts
30-Oct-23 15:22 32.713878 -108.752528 230 22762ft 246kts
30-Oct-23 15:23 32.664678 -108.809389 230 22747ft 247kts
30-Oct-23 15:24 32.615419 -108.866193 230 22766ft 246kts
30-Oct-23 15:25 32.566160 -108.922910 230 22742ft 246kts
30-Oct-23 15:26 32.516982 -108.979454 230 22747ft 246kts
30-Oct-23 15:27 32.467894 -109.035819 230 22760ft 246kts
30-Oct-23 15:28 32.418629 -109.092249 230 22758ft 246kts
30-Oct-23 15:29 32.369246 -109.148798 230 22747ft 246kts
30-Oct-23 15:30 32.320075 -109.204982 230 22760ft 246kts
30-Oct-23 15:31 32.271546 -109.262272 247 22705ft 240kts
30-Oct-23 15:32 32.261787 -109.338324 264 22742ft 235kts
30-Oct-23 15:33 32.253943 -109.414764 264 22740ft 235kts
30-Oct-23 15:34 32.246147 -109.491552 265 22737ft 236kts
30-Oct-23 15:35 32.238232 -109.569214 265 22476ft 245kts
30-Oct-23 15:36 32.229884 -109.650176 264 22035ft 252kts
30-Oct-23 15:37 32.221303 -109.732918 265 21738ft 252kts
30-Oct-23 15:38 32.212855 -109.814030 265 21727ft 247kts
30-Oct-23 15:39 32.204444 -109.895945 265 21198ft 262kts
30-Oct-23 15:40 32.195483 -109.983152 265 20250ft 272kts
30-Oct-23 15:41 32.186272 -110.072566 265 19289ft 277kts
30-Oct-23 15:42 32.176946 -110.162266 265 17814ft 282kts
30-Oct-23 15:43 32.167384 -110.253641 265 15787ft 277kts
30-Oct-23 15:44 32.159981 -110.341097 276 14467ft 253kts
30-Oct-23 15:45 32.164702 -110.425737 275 13900ft 265kts
30-Oct-23 15:46 32.169650 -110.513656 276 13286ft 271kts
30-Oct-23 15:47 32.174623 -110.602995 275 12653ft 278kts
30-Oct-23 15:48 32.179712 -110.695548 275 11906ft 286kts
30-Oct-23 15:49 32.184810 -110.789397 274 11246ft 286kts
30-Oct-23 15:50 32.203510 -110.876922 320 10642ft 280kts
30-Oct-23 15:51 32.260557 -110.942505 316 9389ft 297kts
30-Oct-23 15:52 32.319273 -111.011565 316 8232ft 297kts
30-Oct-23 15:53 32.377350 -111.081053 315 7066ft 294kts
30-Oct-23 15:54 32.365599 -111.161054 229 6193ft 257kts
30-Oct-23 15:55 32.313662 -111.179104 125 6223ft 204kts
30-Oct-23 15:56 32.280009 -111.132208 129 6235ft 150kts
30-Oct-23 15:57 32.253153 -111.099837 130 6121ft 142kts
30-Oct-23 15:58 32.223344 -111.064740 131 5373ft 156kts
30-Oct-23 15:59 32.193117 -111.029336 131 4534ft 146kts
30-Oct-23 16:00 32.166665 -110.998389 131 3837ft 120kts
30-Oct-23 16:01 32.143637 -110.971453 131 3171ft 113kts
30-Oct-23 16:02 32.122136 -110.946465 131 2622ft 92kts
30-Oct-23 16:03 32.114782 -110.936505 45 2610ft 15kts
30-Oct-23 16:04 32.117901 -110.937413 57 2602ft 0kts

Navigation Log

Ident Type
Flight plan parsing failed, navigation log unavailable